KGRB/GRB METAR and TAF weather

Enter ICAO airport designator
Station Type Date Time Source
KGRB METAR 2018/12/12 11:53 UTC NOAA

KGRB 121153Z 11010G20KT 8SM OVC012 00/M03 A2981 RMK AO2 PK WND 12026/1114 SLP105 T00001028 10006 21017 56024


Station Type Date Time Source
KGRB Decoded METAR 2018/12/12 11:53 UTC NOAA

AUSTIN STRAUBEL INTERNATIONAL AIRPORT , WI, United States (KGRB) 44-29N 088-08W 205M
Dec 12, 2018 - 06:53 AM EST / 2018.12.12 1153 UTC
Wind: from the ESE (110 degrees) at 12 MPH (10 KT) gusting to 23 MPH (20 KT):0
Visibility: 8 mile(s):0
Sky conditions: overcast
Temperature: 32.0 F (0.0 C)
Windchill: 23 F (-5 C):1
Dew Point: 27.0 F (-2.8 C)
Relative Humidity: 81%
Pressure (altimeter): 29.81 in. Hg (1009 hPa)
Pressure tendency: 0.07 inches (2.4 hPa) lower than three hours ago
ob: KGRB 121153Z 11010G20KT 8SM OVC012 00/M03 A2981 RMK AO2 PK WND 12026/1114 SLP105 T00001028 10006 21017 56024
cycle: 12

Station Type Date Time Source
KGRB TAF 2018/12/12 12:22 UTC NOAA

TAF KGRB 121120Z 1212/1312 11012G17KT 6SM BR OVC012
FM121400 11013G18KT 4SM -SNDZ BR OVC012
TEMPO 1214/1218 1 1/2SM -SN BR OVC008
FM121900 08005KT 4SM -DZ BR OVC007
FM122300 VRB03KT 5SM BR OVC006


Example: see airport list